sensor_id;sensor_type;location;lat;lon;timestamp;P1;durP1;ratioP1;P2;durP2;ratioP2
35245;SDS011;21379;50.962;6.960;2024-02-26T00:01:45;1.90;;;0.82;;
35245;SDS011;21379;50.962;6.960;2024-02-26T00:06:38;1.52;;;0.80;;
35245;SDS011;21379;50.962;6.960;2024-02-26T00:09:06;2.58;;;0.77;;
35245;SDS011;21379;50.962;6.960;2024-02-26T00:11:33;1.50;;;0.80;;
35245;SDS011;21379;50.962;6.960;2024-02-26T00:14:00;0.77;;;0.60;;
35245;SDS011;21379;50.962;6.960;2024-02-26T00:16:26;1.33;;;0.80;;
35245;SDS011;21379;50.962;6.960;2024-02-26T00:18:54;1.55;;;0.70;;
35245;SDS011;21379;50.962;6.960;2024-02-26T00:26:15;1.33;;;0.70;;
35245;SDS011;21379;50.962;6.960;2024-02-26T00:28:42;1.45;;;0.82;;
35245;SDS011;21379;50.962;6.960;2024-02-26T00:31:09;1.60;;;0.55;;
35245;SDS011;21379;50.962;6.960;2024-02-26T00:33:36;1.10;;;0.70;;
35245;SDS011;21379;50.962;6.960;2024-02-26T00:36:05;1.65;;;0.80;;
35245;SDS011;21379;50.962;6.960;2024-02-26T00:38:32;1.10;;;0.65;;
35245;SDS011;21379;50.962;6.960;2024-02-26T00:40:58;1.63;;;0.80;;
35245;SDS011;21379;50.962;6.960;2024-02-26T00:43:25;1.40;;;0.60;;
35245;SDS011;21379;50.962;6.960;2024-02-26T00:45:52;3.47;;;0.95;;
35245;SDS011;21379;50.962;6.960;2024-02-26T00:48:18;0.70;;;0.50;;
35245;SDS011;21379;50.962;6.960;2024-02-26T00:50:45;1.48;;;0.68;;
35245;SDS011;21379;50.962;6.960;2024-02-26T00:53:13;2.20;;;0.75;;
35245;SDS011;21379;50.962;6.960;2024-02-26T01:00:33;1.50;;;0.57;;
35245;SDS011;21379;50.962;6.960;2024-02-26T01:02:59;2.05;;;0.80;;
35245;SDS011;21379;50.962;6.960;2024-02-26T01:05:26;2.17;;;0.65;;
35245;SDS011;21379;50.962;6.960;2024-02-26T01:07:53;1.65;;;0.60;;
35245;SDS011;21379;50.962;6.960;2024-02-26T01:10:21;0.50;;;0.43;;
35245;SDS011;21379;50.962;6.960;2024-02-26T01:17:40;0.77;;;0.50;;
35245;SDS011;21379;50.962;6.960;2024-02-26T01:20:07;0.95;;;0.60;;
35245;SDS011;21379;50.962;6.960;2024-02-26T01:22:35;0.60;;;0.40;;
35245;SDS011;21379;50.962;6.960;2024-02-26T01:25:01;1.95;;;0.63;;
35245;SDS011;21379;50.962;6.960;2024-02-26T01:27:30;2.58;;;0.45;;
35245;SDS011;21379;50.962;6.960;2024-02-26T01:32:23;1.15;;;0.68;;
35245;SDS011;21379;50.962;6.960;2024-02-26T01:34:49;3.22;;;0.60;;
35245;SDS011;21379;50.962;6.960;2024-02-26T01:37:16;1.23;;;0.60;;
35245;SDS011;21379;50.962;6.960;2024-02-26T01:39:43;1.67;;;0.80;;
35245;SDS011;21379;50.962;6.960;2024-02-26T01:42:09;2.55;;;0.65;;
35245;SDS011;21379;50.962;6.960;2024-02-26T01:44:37;1.33;;;0.60;;
35245;SDS011;21379;50.962;6.960;2024-02-26T01:49:30;1.40;;;0.60;;
35245;SDS011;21379;50.962;6.960;2024-02-26T01:51:57;1.75;;;0.68;;
35245;SDS011;21379;50.962;6.960;2024-02-26T01:54:25;1.00;;;0.50;;
35245;SDS011;21379;50.962;6.960;2024-02-26T01:56:52;1.42;;;0.77;;
35245;SDS011;21379;50.962;6.960;2024-02-26T01:59:18;0.43;;;0.43;;
35245;SDS011;21379;50.962;6.960;2024-02-26T02:01:48;2.08;;;0.50;;
35245;SDS011;21379;50.962;6.960;2024-02-26T02:04:19;0.52;;;0.35;;
35245;SDS011;21379;50.962;6.960;2024-02-26T02:06:46;0.75;;;0.40;;
35245;SDS011;21379;50.962;6.960;2024-02-26T02:09:13;1.55;;;0.70;;
35245;SDS011;21379;50.962;6.960;2024-02-26T02:11:39;0.98;;;0.50;;
35245;SDS011;21379;50.962;6.960;2024-02-26T02:14:06;1.30;;;0.55;;
35245;SDS011;21379;50.962;6.960;2024-02-26T02:16:33;0.68;;;0.50;;
35245;SDS011;21379;50.962;6.960;2024-02-26T02:19:01;1.08;;;0.70;;
35245;SDS011;21379;50.962;6.960;2024-02-26T02:23:55;1.05;;;0.60;;
35245;SDS011;21379;50.962;6.960;2024-02-26T02:26:22;1.50;;;0.68;;
35245;SDS011;21379;50.962;6.960;2024-02-26T02:28:49;1.10;;;0.73;;
35245;SDS011;21379;50.962;6.960;2024-02-26T02:31:16;2.33;;;0.70;;
35245;SDS011;21379;50.962;6.960;2024-02-26T02:33:42;0.50;;;0.40;;
35245;SDS011;21379;50.962;6.960;2024-02-26T02:36:09;1.38;;;0.73;;
35245;SDS011;21379;50.962;6.960;2024-02-26T02:38:38;3.60;;;0.60;;
35245;SDS011;21379;50.962;6.960;2024-02-26T02:43:31;1.65;;;0.65;;
35245;SDS011;21379;50.962;6.960;2024-02-26T02:45:58;0.68;;;0.55;;
35245;SDS011;21379;50.962;6.960;2024-02-26T02:48:24;1.17;;;0.60;;
35245;SDS011;21379;50.962;6.960;2024-02-26T02:50:51;1.02;;;0.70;;
35245;SDS011;21379;50.962;6.960;2024-02-26T02:53:18;3.10;;;0.98;;
35245;SDS011;21379;50.962;6.960;2024-02-26T02:55:46;2.17;;;0.70;;
35245;SDS011;21379;50.962;6.960;2024-02-26T02:58:13;1.75;;;0.80;;
35245;SDS011;21379;50.962;6.960;2024-02-26T03:00:40;0.90;;;0.60;;
35245;SDS011;21379;50.962;6.960;2024-02-26T03:03:06;1.02;;;0.60;;
35245;SDS011;21379;50.962;6.960;2024-02-26T03:05:33;2.88;;;0.50;;
35245;SDS011;21379;50.962;6.960;2024-02-26T03:08:00;3.08;;;0.60;;
35245;SDS011;21379;50.962;6.960;2024-02-26T03:10:26;1.02;;;0.65;;
35245;SDS011;21379;50.962;6.960;2024-02-26T03:12:54;0.85;;;0.52;;
35245;SDS011;21379;50.962;6.960;2024-02-26T03:15:22;2.83;;;0.57;;
35245;SDS011;21379;50.962;6.960;2024-02-26T03:17:48;1.20;;;0.80;;
35245;SDS011;21379;50.962;6.960;2024-02-26T03:20:15;1.08;;;0.60;;
35245;SDS011;21379;50.962;6.960;2024-02-26T03:22:44;1.63;;;0.57;;
35245;SDS011;21379;50.962;6.960;2024-02-26T03:25:11;0.60;;;0.50;;
35245;SDS011;21379;50.962;6.960;2024-02-26T03:27:37;1.33;;;0.60;;
35245;SDS011;21379;50.962;6.960;2024-02-26T03:30:06;1.33;;;0.68;;
35245;SDS011;21379;50.962;6.960;2024-02-26T03:32:34;2.25;;;0.60;;
35245;SDS011;21379;50.962;6.960;2024-02-26T03:35:00;1.13;;;0.63;;
35245;SDS011;21379;50.962;6.960;2024-02-26T03:37:27;1.85;;;0.68;;
35245;SDS011;21379;50.962;6.960;2024-02-26T03:39:54;2.80;;;0.50;;
35245;SDS011;21379;50.962;6.960;2024-02-26T03:47:16;2.83;;;0.60;;
35245;SDS011;21379;50.962;6.960;2024-02-26T03:52:09;1.98;;;0.60;;
35245;SDS011;21379;50.962;6.960;2024-02-26T03:54:36;1.02;;;0.47;;
35245;SDS011;21379;50.962;6.960;2024-02-26T03:57:03;0.85;;;0.50;;
35245;SDS011;21379;50.962;6.960;2024-02-26T03:59:30;0.68;;;0.50;;
35245;SDS011;21379;50.962;6.960;2024-02-26T04:01:56;1.38;;;0.70;;
35245;SDS011;21379;50.962;6.960;2024-02-26T04:04:24;1.10;;;0.77;;
35245;SDS011;21379;50.962;6.960;2024-02-26T04:06:51;1.10;;;0.50;;
35245;SDS011;21379;50.962;6.960;2024-02-26T04:09:18;0.70;;;0.50;;
35245;SDS011;21379;50.962;6.960;2024-02-26T04:11:44;1.83;;;0.70;;
35245;SDS011;21379;50.962;6.960;2024-02-26T04:14:11;1.58;;;0.90;;
35245;SDS011;21379;50.962;6.960;2024-02-26T04:16:37;1.30;;;0.80;;
35245;SDS011;21379;50.962;6.960;2024-02-26T04:19:04;0.98;;;0.70;;
35245;SDS011;21379;50.962;6.960;2024-02-26T04:21:33;2.30;;;0.77;;
35245;SDS011;21379;50.962;6.960;2024-02-26T04:26:27;1.95;;;0.57;;
35245;SDS011;21379;50.962;6.960;2024-02-26T04:28:54;1.45;;;0.63;;
35245;SDS011;21379;50.962;6.960;2024-02-26T04:31:20;0.95;;;0.80;;
35245;SDS011;21379;50.962;6.960;2024-02-26T04:33:47;2.35;;;0.60;;
35245;SDS011;21379;50.962;6.960;2024-02-26T04:36:14;1.95;;;0.60;;
35245;SDS011;21379;50.962;6.960;2024-02-26T04:38:42;2.42;;;0.85;;
35245;SDS011;21379;50.962;6.960;2024-02-26T04:46:06;1.27;;;0.60;;
35245;SDS011;21379;50.962;6.960;2024-02-26T04:48:33;1.10;;;0.50;;
35245;SDS011;21379;50.962;6.960;2024-02-26T04:51:00;1.98;;;1.10;;
35245;SDS011;21379;50.962;6.960;2024-02-26T04:53:26;1.63;;;0.70;;
35245;SDS011;21379;50.962;6.960;2024-02-26T04:55:55;1.20;;;0.60;;
35245;SDS011;21379;50.962;6.960;2024-02-26T05:00:48;1.33;;;0.70;;
35245;SDS011;21379;50.962;6.960;2024-02-26T05:03:14;1.52;;;0.80;;
35245;SDS011;21379;50.962;6.960;2024-02-26T05:05:41;1.33;;;0.80;;
35245;SDS011;21379;50.962;6.960;2024-02-26T05:08:08;2.90;;;1.00;;
35245;SDS011;21379;50.962;6.960;2024-02-26T05:10:35;2.25;;;1.00;;
35245;SDS011;21379;50.962;6.960;2024-02-26T05:13:06;2.03;;;0.80;;
35245;SDS011;21379;50.962;6.960;2024-02-26T05:15:33;1.33;;;0.50;;
35245;SDS011;21379;50.962;6.960;2024-02-26T05:17:59;1.10;;;0.80;;
35245;SDS011;21379;50.962;6.960;2024-02-26T05:20:26;2.63;;;0.70;;
35245;SDS011;21379;50.962;6.960;2024-02-26T05:22:53;1.67;;;0.77;;
35245;SDS011;21379;50.962;6.960;2024-02-26T05:25:19;2.25;;;0.90;;
35245;SDS011;21379;50.962;6.960;2024-02-26T05:27:46;3.60;;;0.90;;
35245;SDS011;21379;50.962;6.960;2024-02-26T05:30:14;3.25;;;1.10;;
35245;SDS011;21379;50.962;6.960;2024-02-26T05:32:41;2.85;;;0.90;;
35245;SDS011;21379;50.962;6.960;2024-02-26T05:35:08;1.80;;;0.80;;
35245;SDS011;21379;50.962;6.960;2024-02-26T05:37:35;1.20;;;0.70;;
35245;SDS011;21379;50.962;6.960;2024-02-26T05:40:01;1.27;;;0.65;;
35245;SDS011;21379;50.962;6.960;2024-02-26T05:42:29;1.70;;;0.95;;
35245;SDS011;21379;50.962;6.960;2024-02-26T05:44:56;1.70;;;0.77;;
35245;SDS011;21379;50.962;6.960;2024-02-26T05:47:24;1.27;;;0.85;;
35245;SDS011;21379;50.962;6.960;2024-02-26T05:52:17;3.72;;;0.90;;
35245;SDS011;21379;50.962;6.960;2024-02-26T05:54:44;1.95;;;0.95;;
35245;SDS011;21379;50.962;6.960;2024-02-26T05:57:10;0.77;;;0.70;;
35245;SDS011;21379;50.962;6.960;2024-02-26T05:59:37;2.60;;;0.70;;
35245;SDS011;21379;50.962;6.960;2024-02-26T06:02:04;1.33;;;0.90;;
35245;SDS011;21379;50.962;6.960;2024-02-26T06:04:32;1.42;;;1.05;;
35245;SDS011;21379;50.962;6.960;2024-02-26T06:06:58;1.25;;;0.82;;
35245;SDS011;21379;50.962;6.960;2024-02-26T06:09:25;1.63;;;0.80;;
35245;SDS011;21379;50.962;6.960;2024-02-26T06:11:52;1.80;;;1.10;;
35245;SDS011;21379;50.962;6.960;2024-02-26T06:14:19;1.88;;;1.10;;
35245;SDS011;21379;50.962;6.960;2024-02-26T06:16:46;2.03;;;0.90;;
35245;SDS011;21379;50.962;6.960;2024-02-26T06:19:13;3.92;;;1.10;;
35245;SDS011;21379;50.962;6.960;2024-02-26T06:21:41;2.30;;;1.10;;
35245;SDS011;21379;50.962;6.960;2024-02-26T06:24:08;3.42;;;1.20;;
35245;SDS011;21379;50.962;6.960;2024-02-26T06:26:34;2.55;;;1.30;;
35245;SDS011;21379;50.962;6.960;2024-02-26T06:29:01;1.70;;;1.15;;
35245;SDS011;21379;50.962;6.960;2024-02-26T06:31:28;1.55;;;1.00;;
35245;SDS011;21379;50.962;6.960;2024-02-26T06:33:54;1.98;;;1.23;;
35245;SDS011;21379;50.962;6.960;2024-02-26T06:36:21;2.35;;;1.33;;
35245;SDS011;21379;50.962;6.960;2024-02-26T06:38:49;2.78;;;1.30;;
35245;SDS011;21379;50.962;6.960;2024-02-26T06:41:17;3.70;;;1.67;;
35245;SDS011;21379;50.962;6.960;2024-02-26T06:43:43;2.03;;;1.17;;
35245;SDS011;21379;50.962;6.960;2024-02-26T06:46:10;2.05;;;1.13;;
35245;SDS011;21379;50.962;6.960;2024-02-26T06:48:37;2.80;;;1.33;;
35245;SDS011;21379;50.962;6.960;2024-02-26T06:51:03;2.22;;;1.20;;
35245;SDS011;21379;50.962;6.960;2024-02-26T06:53:30;4.15;;;1.38;;
35245;SDS011;21379;50.962;6.960;2024-02-26T06:55:58;3.47;;;1.30;;
35245;SDS011;21379;50.962;6.960;2024-02-26T06:58:25;2.88;;;1.45;;
35245;SDS011;21379;50.962;6.960;2024-02-26T07:00:51;1.83;;;1.45;;
35245;SDS011;21379;50.962;6.960;2024-02-26T07:03:18;3.15;;;1.50;;
35245;SDS011;21379;50.962;6.960;2024-02-26T07:05:45;2.55;;;1.50;;
35245;SDS011;21379;50.962;6.960;2024-02-26T07:08:11;2.85;;;1.42;;
35245;SDS011;21379;50.962;6.960;2024-02-26T07:10:38;4.82;;;1.63;;
35245;SDS011;21379;50.962;6.960;2024-02-26T07:13:06;3.20;;;1.75;;
35245;SDS011;21379;50.962;6.960;2024-02-26T07:17:59;1.77;;;1.10;;
35245;SDS011;21379;50.962;6.960;2024-02-26T07:20:28;4.38;;;1.45;;
35245;SDS011;21379;50.962;6.960;2024-02-26T07:22:55;2.17;;;1.23;;
35245;SDS011;21379;50.962;6.960;2024-02-26T07:25:21;2.72;;;1.63;;
35245;SDS011;21379;50.962;6.960;2024-02-26T07:27:49;4.75;;;1.55;;
35245;SDS011;21379;50.962;6.960;2024-02-26T07:30:17;3.78;;;1.30;;
35245;SDS011;21379;50.962;6.960;2024-02-26T07:32:44;2.17;;;1.27;;
35245;SDS011;21379;50.962;6.960;2024-02-26T07:35:11;2.50;;;1.50;;
35245;SDS011;21379;50.962;6.960;2024-02-26T07:37:39;3.88;;;1.30;;
35245;SDS011;21379;50.962;6.960;2024-02-26T07:40:06;2.10;;;1.30;;
35245;SDS011;21379;50.962;6.960;2024-02-26T07:42:34;2.58;;;1.67;;
35245;SDS011;21379;50.962;6.960;2024-02-26T07:45:01;3.13;;;1.20;;
35245;SDS011;21379;50.962;6.960;2024-02-26T07:47:29;2.20;;;1.30;;
35245;SDS011;21379;50.962;6.960;2024-02-26T07:49:56;3.15;;;1.70;;
35245;SDS011;21379;50.962;6.960;2024-02-26T07:52:23;1.63;;;1.10;;
35245;SDS011;21379;50.962;6.960;2024-02-26T07:54:50;2.00;;;1.40;;
35245;SDS011;21379;50.962;6.960;2024-02-26T07:57:16;2.45;;;1.30;;
35245;SDS011;21379;50.962;6.960;2024-02-26T07:59:43;3.60;;;1.60;;
35245;SDS011;21379;50.962;6.960;2024-02-26T08:02:14;3.17;;;1.20;;
35245;SDS011;21379;50.962;6.960;2024-02-26T08:04:42;2.00;;;1.25;;
35245;SDS011;21379;50.962;6.960;2024-02-26T08:14:29;1.80;;;1.02;;
35245;SDS011;21379;50.962;6.960;2024-02-26T08:16:57;2.60;;;1.40;;
35245;SDS011;21379;50.962;6.960;2024-02-26T08:19:24;3.58;;;1.20;;
35245;SDS011;21379;50.962;6.960;2024-02-26T08:21:53;2.35;;;1.40;;
35245;SDS011;21379;50.962;6.960;2024-02-26T08:24:19;3.03;;;1.35;;
35245;SDS011;21379;50.962;6.960;2024-02-26T08:26:46;2.58;;;1.33;;
35245;SDS011;21379;50.962;6.960;2024-02-26T08:29:13;2.28;;;1.33;;
35245;SDS011;21379;50.962;6.960;2024-02-26T08:31:39;2.05;;;1.33;;
35245;SDS011;21379;50.962;6.960;2024-02-26T08:34:06;2.25;;;1.20;;
35245;SDS011;21379;50.962;6.960;2024-02-26T08:36:33;3.60;;;1.35;;
35245;SDS011;21379;50.962;6.960;2024-02-26T08:39:02;2.53;;;1.30;;
35245;SDS011;21379;50.962;6.960;2024-02-26T08:41:29;2.60;;;1.50;;
35245;SDS011;21379;50.962;6.960;2024-02-26T08:43:56;2.15;;;1.20;;
35245;SDS011;21379;50.962;6.960;2024-02-26T08:46:23;1.67;;;1.20;;
35245;SDS011;21379;50.962;6.960;2024-02-26T08:48:50;2.92;;;1.33;;
35245;SDS011;21379;50.962;6.960;2024-02-26T08:51:16;2.85;;;1.38;;
35245;SDS011;21379;50.962;6.960;2024-02-26T08:53:43;2.22;;;1.65;;
35245;SDS011;21379;50.962;6.960;2024-02-26T08:56:13;2.53;;;1.63;;
35245;SDS011;21379;50.962;6.960;2024-02-26T08:58:42;2.05;;;1.50;;
35245;SDS011;21379;50.962;6.960;2024-02-26T09:01:08;3.28;;;1.45;;
35245;SDS011;21379;50.962;6.960;2024-02-26T09:03:35;1.70;;;0.95;;
35245;SDS011;21379;50.962;6.960;2024-02-26T09:06:02;1.80;;;1.25;;
35245;SDS011;21379;50.962;6.960;2024-02-26T09:08:29;2.13;;;1.40;;
35245;SDS011;21379;50.962;6.960;2024-02-26T09:10:55;3.63;;;1.17;;
35245;SDS011;21379;50.962;6.960;2024-02-26T09:13:24;3.13;;;1.58;;
35245;SDS011;21379;50.962;6.960;2024-02-26T09:18:17;3.72;;;1.42;;
35245;SDS011;21379;50.962;6.960;2024-02-26T09:20:43;2.28;;;1.38;;
35245;SDS011;21379;50.962;6.960;2024-02-26T09:23:10;4.15;;;1.40;;
35245;SDS011;21379;50.962;6.960;2024-02-26T09:25:37;4.07;;;1.42;;
35245;SDS011;21379;50.962;6.960;2024-02-26T09:28:04;2.03;;;1.30;;
35245;SDS011;21379;50.962;6.960;2024-02-26T09:30:32;2.78;;;1.35;;
35245;SDS011;21379;50.962;6.960;2024-02-26T09:37:52;3.40;;;1.60;;
35245;SDS011;21379;50.962;6.960;2024-02-26T09:40:19;2.67;;;1.38;;
35245;SDS011;21379;50.962;6.960;2024-02-26T09:42:47;2.33;;;1.52;;
35245;SDS011;21379;50.962;6.960;2024-02-26T09:45:17;2.20;;;1.55;;
35245;SDS011;21379;50.962;6.960;2024-02-26T09:47:45;2.67;;;1.20;;
35245;SDS011;21379;50.962;6.960;2024-02-26T09:52:39;2.08;;;1.38;;
35245;SDS011;21379;50.962;6.960;2024-02-26T09:55:07;2.88;;;1.48;;
35245;SDS011;21379;50.962;6.960;2024-02-26T09:57:35;3.35;;;1.67;;
35245;SDS011;21379;50.962;6.960;2024-02-26T10:00:03;3.25;;;1.63;;
35245;SDS011;21379;50.962;6.960;2024-02-26T10:02:33;2.78;;;1.60;;
35245;SDS011;21379;50.962;6.960;2024-02-26T10:05:03;3.80;;;1.48;;
35245;SDS011;21379;50.962;6.960;2024-02-26T10:07:31;2.28;;;1.60;;
35245;SDS011;21379;50.962;6.960;2024-02-26T10:09:58;4.15;;;1.50;;
35245;SDS011;21379;50.962;6.960;2024-02-26T10:12:25;1.70;;;1.20;;
35245;SDS011;21379;50.962;6.960;2024-02-26T10:14:53;2.95;;;1.58;;
35245;SDS011;21379;50.962;6.960;2024-02-26T10:17:20;4.35;;;1.77;;
35245;SDS011;21379;50.962;6.960;2024-02-26T10:19:46;2.50;;;1.58;;
35245;SDS011;21379;50.962;6.960;2024-02-26T10:22:14;3.28;;;1.77;;
35245;SDS011;21379;50.962;6.960;2024-02-26T10:24:41;3.55;;;1.48;;
35245;SDS011;21379;50.962;6.960;2024-02-26T10:27:08;3.55;;;1.55;;
35245;SDS011;21379;50.962;6.960;2024-02-26T10:29:34;3.10;;;1.92;;
35245;SDS011;21379;50.962;6.960;2024-02-26T10:32:01;4.95;;;1.90;;
35245;SDS011;21379;50.962;6.960;2024-02-26T10:34:28;3.47;;;1.67;;
35245;SDS011;21379;50.962;6.960;2024-02-26T10:36:55;2.80;;;2.03;;
35245;SDS011;21379;50.962;6.960;2024-02-26T10:39:23;3.75;;;2.28;;
35245;SDS011;21379;50.962;6.960;2024-02-26T10:46:43;4.40;;;1.90;;
35245;SDS011;21379;50.962;6.960;2024-02-26T10:49:13;3.47;;;2.17;;
35245;SDS011;21379;50.962;6.960;2024-02-26T10:51:41;3.35;;;1.90;;
35245;SDS011;21379;50.962;6.960;2024-02-26T10:54:10;3.35;;;2.00;;
35245;SDS011;21379;50.962;6.960;2024-02-26T10:56:41;3.97;;;2.50;;
35245;SDS011;21379;50.962;6.960;2024-02-26T10:59:09;5.00;;;2.10;;
35245;SDS011;21379;50.962;6.960;2024-02-26T11:01:36;3.13;;;1.80;;
35245;SDS011;21379;50.962;6.960;2024-02-26T11:04:03;2.80;;;1.70;;
35245;SDS011;21379;50.962;6.960;2024-02-26T11:06:30;4.13;;;1.92;;
35245;SDS011;21379;50.962;6.960;2024-02-26T11:08:59;3.10;;;1.88;;
35245;SDS011;21379;50.962;6.960;2024-02-26T11:11:27;2.67;;;1.67;;
35245;SDS011;21379;50.962;6.960;2024-02-26T11:13:55;3.72;;;1.77;;
35245;SDS011;21379;50.962;6.960;2024-02-26T11:16:22;3.00;;;1.83;;
35245;SDS011;21379;50.962;6.960;2024-02-26T11:18:49;3.33;;;1.65;;
35245;SDS011;21379;50.962;6.960;2024-02-26T11:21:16;3.30;;;1.80;;
35245;SDS011;21379;50.962;6.960;2024-02-26T11:23:45;3.22;;;2.08;;
35245;SDS011;21379;50.962;6.960;2024-02-26T11:26:12;4.00;;;1.85;;
35245;SDS011;21379;50.962;6.960;2024-02-26T11:28:39;3.22;;;1.92;;
35245;SDS011;21379;50.962;6.960;2024-02-26T11:31:09;3.03;;;2.00;;
35245;SDS011;21379;50.962;6.960;2024-02-26T11:33:37;4.93;;;2.13;;
35245;SDS011;21379;50.962;6.960;2024-02-26T11:36:07;2.33;;;1.60;;
35245;SDS011;21379;50.962;6.960;2024-02-26T11:38:34;2.45;;;1.63;;
35245;SDS011;21379;50.962;6.960;2024-02-26T11:41:02;3.05;;;1.90;;
35245;SDS011;21379;50.962;6.960;2024-02-26T11:46:25;3.15;;;1.80;;
35245;SDS011;21379;50.962;6.960;2024-02-26T11:48:58;1.90;;;1.40;;
35245;SDS011;21379;50.962;6.960;2024-02-26T11:51:25;4.60;;;1.95;;
35245;SDS011;21379;50.962;6.960;2024-02-26T11:53:53;2.70;;;1.83;;
35245;SDS011;21379;50.962;6.960;2024-02-26T11:56:25;5.85;;;1.88;;
35245;SDS011;21379;50.962;6.960;2024-02-26T11:58:56;2.65;;;1.75;;
35245;SDS011;21379;50.962;6.960;2024-02-26T12:04:18;4.60;;;1.85;;
35245;SDS011;21379;50.962;6.960;2024-02-26T12:06:50;3.88;;;1.92;;
35245;SDS011;21379;50.962;6.960;2024-02-26T12:09:33;3.08;;;1.80;;
35245;SDS011;21379;50.962;6.960;2024-02-26T12:12:02;2.63;;;1.85;;
35245;SDS011;21379;50.962;6.960;2024-02-26T12:14:29;2.20;;;1.70;;
35245;SDS011;21379;50.962;6.960;2024-02-26T12:16:57;2.90;;;1.90;;
35245;SDS011;21379;50.962;6.960;2024-02-26T12:19:24;4.45;;;1.80;;
35245;SDS011;21379;50.962;6.960;2024-02-26T12:21:51;3.45;;;1.90;;
35245;SDS011;21379;50.962;6.960;2024-02-26T12:24:20;3.20;;;2.03;;
35245;SDS011;21379;50.962;6.960;2024-02-26T12:26:47;3.55;;;1.90;;
35245;SDS011;21379;50.962;6.960;2024-02-26T12:29:13;3.53;;;2.05;;
35245;SDS011;21379;50.962;6.960;2024-02-26T12:31:40;2.75;;;1.98;;
35245;SDS011;21379;50.962;6.960;2024-02-26T12:34:08;2.88;;;1.73;;
35245;SDS011;21379;50.962;6.960;2024-02-26T12:36:35;2.78;;;1.67;;
35245;SDS011;21379;50.962;6.960;2024-02-26T12:39:03;3.30;;;1.67;;
35245;SDS011;21379;50.962;6.960;2024-02-26T12:41:32;4.13;;;1.77;;
35245;SDS011;21379;50.962;6.960;2024-02-26T12:43:59;2.72;;;1.40;;
35245;SDS011;21379;50.962;6.960;2024-02-26T12:46:25;2.38;;;1.65;;
35245;SDS011;21379;50.962;6.960;2024-02-26T12:48:54;3.65;;;1.60;;
35245;SDS011;21379;50.962;6.960;2024-02-26T12:51:24;3.25;;;1.67;;
35245;SDS011;21379;50.962;6.960;2024-02-26T12:53:50;4.13;;;1.50;;
35245;SDS011;21379;50.962;6.960;2024-02-26T12:56:18;4.57;;;1.65;;
35245;SDS011;21379;50.962;6.960;2024-02-26T12:58:44;2.97;;;1.83;;
35245;SDS011;21379;50.962;6.960;2024-02-26T13:01:13;2.17;;;1.63;;
35245;SDS011;21379;50.962;6.960;2024-02-26T13:03:41;3.50;;;1.73;;
35245;SDS011;21379;50.962;6.960;2024-02-26T13:06:08;3.42;;;2.10;;
35245;SDS011;21379;50.962;6.960;2024-02-26T13:08:36;3.85;;;1.80;;
35245;SDS011;21379;50.962;6.960;2024-02-26T13:11:03;3.00;;;1.90;;
35245;SDS011;21379;50.962;6.960;2024-02-26T13:13:29;3.60;;;2.33;;
35245;SDS011;21379;50.962;6.960;2024-02-26T13:16:01;4.53;;;2.30;;
35245;SDS011;21379;50.962;6.960;2024-02-26T13:18:29;2.72;;;1.83;;
35245;SDS011;21379;50.962;6.960;2024-02-26T13:21:06;3.47;;;1.73;;
35245;SDS011;21379;50.962;6.960;2024-02-26T13:23:35;5.28;;;1.98;;
35245;SDS011;21379;50.962;6.960;2024-02-26T13:26:03;3.20;;;1.83;;
35245;SDS011;21379;50.962;6.960;2024-02-26T13:28:30;3.53;;;2.00;;
35245;SDS011;21379;50.962;6.960;2024-02-26T13:30:57;3.47;;;1.95;;
35245;SDS011;21379;50.962;6.960;2024-02-26T13:33:25;5.63;;;2.30;;
35245;SDS011;21379;50.962;6.960;2024-02-26T13:35:52;4.57;;;2.50;;
35245;SDS011;21379;50.962;6.960;2024-02-26T13:38:20;4.22;;;2.10;;
35245;SDS011;21379;50.962;6.960;2024-02-26T13:40:48;3.50;;;2.20;;
35245;SDS011;21379;50.962;6.960;2024-02-26T13:43:16;4.45;;;2.22;;
35245;SDS011;21379;50.962;6.960;2024-02-26T13:45:42;2.80;;;2.00;;
35245;SDS011;21379;50.962;6.960;2024-02-26T13:48:09;3.80;;;2.17;;
35245;SDS011;21379;50.962;6.960;2024-02-26T13:50:37;3.75;;;2.30;;
35245;SDS011;21379;50.962;6.960;2024-02-26T13:53:04;4.05;;;2.42;;
35245;SDS011;21379;50.962;6.960;2024-02-26T13:55:31;4.63;;;2.35;;
35245;SDS011;21379;50.962;6.960;2024-02-26T13:57:59;3.90;;;2.10;;
35245;SDS011;21379;50.962;6.960;2024-02-26T14:00:27;5.20;;;2.45;;
35245;SDS011;21379;50.962;6.960;2024-02-26T14:02:54;5.38;;;2.88;;
35245;SDS011;21379;50.962;6.960;2024-02-26T14:05:20;4.22;;;2.47;;
35245;SDS011;21379;50.962;6.960;2024-02-26T14:07:47;4.85;;;2.50;;
35245;SDS011;21379;50.962;6.960;2024-02-26T14:10:14;3.80;;;2.35;;
35245;SDS011;21379;50.962;6.960;2024-02-26T14:12:41;3.40;;;2.25;;
35245;SDS011;21379;50.962;6.960;2024-02-26T14:15:09;4.43;;;2.42;;
35245;SDS011;21379;50.962;6.960;2024-02-26T14:17:41;4.70;;;2.30;;
35245;SDS011;21379;50.962;6.960;2024-02-26T14:20:09;5.13;;;2.67;;
35245;SDS011;21379;50.962;6.960;2024-02-26T14:22:36;5.32;;;2.60;;
35245;SDS011;21379;50.962;6.960;2024-02-26T14:25:03;5.05;;;3.22;;
35245;SDS011;21379;50.962;6.960;2024-02-26T14:27:30;5.65;;;3.17;;
35245;SDS011;21379;50.962;6.960;2024-02-26T14:29:57;5.15;;;3.05;;
35245;SDS011;21379;50.962;6.960;2024-02-26T14:32:25;5.95;;;3.20;;
35245;SDS011;21379;50.962;6.960;2024-02-26T14:34:52;6.57;;;3.15;;
35245;SDS011;21379;50.962;6.960;2024-02-26T14:37:20;6.10;;;3.00;;
35245;SDS011;21379;50.962;6.960;2024-02-26T14:39:47;6.28;;;3.33;;
35245;SDS011;21379;50.962;6.960;2024-02-26T14:42:16;6.38;;;3.10;;
35245;SDS011;21379;50.962;6.960;2024-02-26T14:44:43;7.05;;;3.10;;
35245;SDS011;21379;50.962;6.960;2024-02-26T14:47:12;6.40;;;3.80;;
35245;SDS011;21379;50.962;6.960;2024-02-26T14:49:40;7.63;;;3.22;;
35245;SDS011;21379;50.962;6.960;2024-02-26T14:52:07;5.80;;;3.70;;
35245;SDS011;21379;50.962;6.960;2024-02-26T14:54:34;8.02;;;3.83;;
35245;SDS011;21379;50.962;6.960;2024-02-26T14:57:04;7.55;;;4.30;;
35245;SDS011;21379;50.962;6.960;2024-02-26T14:59:31;7.47;;;4.45;;
35245;SDS011;21379;50.962;6.960;2024-02-26T15:01:58;8.30;;;3.95;;
35245;SDS011;21379;50.962;6.960;2024-02-26T15:04:26;7.45;;;3.88;;
35245;SDS011;21379;50.962;6.960;2024-02-26T15:06:54;8.25;;;4.50;;
35245;SDS011;21379;50.962;6.960;2024-02-26T15:09:21;7.03;;;3.67;;
35245;SDS011;21379;50.962;6.960;2024-02-26T15:11:49;8.45;;;4.90;;
35245;SDS011;21379;50.962;6.960;2024-02-26T15:14:16;6.50;;;3.80;;
35245;SDS011;21379;50.962;6.960;2024-02-26T15:16:43;7.18;;;3.92;;
35245;SDS011;21379;50.962;6.960;2024-02-26T15:19:09;8.63;;;4.40;;
35245;SDS011;21379;50.962;6.960;2024-02-26T15:21:41;8.73;;;4.15;;
35245;SDS011;21379;50.962;6.960;2024-02-26T15:24:10;9.15;;;4.70;;
35245;SDS011;21379;50.962;6.960;2024-02-26T15:26:37;8.02;;;4.30;;
35245;SDS011;21379;50.962;6.960;2024-02-26T15:29:05;9.25;;;5.00;;
35245;SDS011;21379;50.962;6.960;2024-02-26T15:31:34;8.88;;;4.90;;
35245;SDS011;21379;50.962;6.960;2024-02-26T15:34:00;9.93;;;4.68;;
35245;SDS011;21379;50.962;6.960;2024-02-26T15:36:27;9.55;;;4.75;;
35245;SDS011;21379;50.962;6.960;2024-02-26T15:38:54;10.75;;;5.65;;
35245;SDS011;21379;50.962;6.960;2024-02-26T15:41:23;9.27;;;4.65;;
35245;SDS011;21379;50.962;6.960;2024-02-26T15:43:50;9.50;;;5.03;;
35245;SDS011;21379;50.962;6.960;2024-02-26T15:46:17;10.20;;;5.47;;
35245;SDS011;21379;50.962;6.960;2024-02-26T15:48:44;9.07;;;4.97;;
35245;SDS011;21379;50.962;6.960;2024-02-26T15:51:17;12.38;;;5.95;;
35245;SDS011;21379;50.962;6.960;2024-02-26T15:56:11;12.70;;;5.78;;
35245;SDS011;21379;50.962;6.960;2024-02-26T15:58:40;12.88;;;6.03;;
35245;SDS011;21379;50.962;6.960;2024-02-26T16:01:06;12.15;;;6.00;;
35245;SDS011;21379;50.962;6.960;2024-02-26T16:03:36;12.93;;;5.43;;
35245;SDS011;21379;50.962;6.960;2024-02-26T16:06:04;11.75;;;5.43;;
35245;SDS011;21379;50.962;6.960;2024-02-26T16:08:31;13.55;;;5.80;;